createdAt,value
2022-12-27T00:01:30.725Z,101158.09
2022-12-27T00:04:19.345Z,101137.91
2022-12-27T00:07:08.164Z,101163.47
2022-12-27T00:09:56.602Z,101164.38
2022-12-27T00:12:46.348Z,101161.88
2022-12-27T00:15:34.963Z,101172.59
2022-12-27T00:18:23.455Z,101175.72
2022-12-27T00:21:13.677Z,101180.38
2022-12-27T00:24:03.906Z,101183.34
2022-12-27T00:26:52.346Z,101181.94
2022-12-27T00:29:42.118Z,101182.72
2022-12-27T00:32:30.623Z,101141.44
2022-12-27T00:35:19.292Z,101180.03
2022-12-27T00:38:07.780Z,101187.19
2022-12-27T00:40:56.258Z,101195.47
2022-12-27T00:43:44.763Z,101196.19
2022-12-27T00:46:34.585Z,101202.75
2022-12-27T00:49:23.070Z,101207.56
2022-12-27T00:52:11.574Z,101200.16
2022-12-27T00:55:00.115Z,101194.28
2022-12-27T00:57:48.571Z,101205.50
2022-12-27T01:00:37.039Z,101209.81
2022-12-27T01:03:26.901Z,101201.84
2022-12-27T01:06:17.145Z,101215.16
2022-12-27T01:09:06.288Z,101077.09
2022-12-27T01:11:54.691Z,101205.66
2022-12-27T01:14:43.495Z,101200.53
2022-12-27T01:17:32.108Z,101201.09
2022-12-27T01:20:22.205Z,101207.50
2022-12-27T01:23:10.717Z,101205.56
2022-12-27T01:26:02.596Z,101205.72
2022-12-27T01:28:52.682Z,101207.16
2022-12-27T01:31:41.592Z,101214.59
2022-12-27T01:34:30.086Z,101190.41
2022-12-27T01:37:19.881Z,101219.91
2022-12-27T01:40:09.944Z,101234.25
2022-12-27T01:42:57.431Z,101230.03
2022-12-27T01:45:47.288Z,101235.25
2022-12-27T01:48:35.769Z,101247.84
2022-12-27T01:51:24.218Z,101247.31
2022-12-27T01:54:14.045Z,101252.78
2022-12-27T01:57:02.639Z,101255.31
2022-12-27T01:59:51.077Z,101264.94
2022-12-27T02:02:40.229Z,101261.44
2022-12-27T02:05:28.909Z,101260.06
2022-12-27T02:08:29.558Z,101261.44
2022-12-27T02:11:42.208Z,101242.41
2022-12-27T02:14:33.409Z,101264.94
2022-12-27T02:17:24.911Z,101265.09
2022-12-27T02:20:15.622Z,101262.72
2022-12-27T02:23:46.723Z,101254.47
2022-12-27T02:26:44.207Z,101258.13
2022-12-27T02:30:01.754Z,101271.16
2022-12-27T02:32:56.065Z,101249.00
2022-12-27T02:35:48.259Z,101258.25
2022-12-27T02:38:39.026Z,101254.44
2022-12-27T02:41:45.079Z,101253.50
2022-12-27T02:44:51.222Z,101247.88
2022-12-27T02:47:59.064Z,101254.88
2022-12-27T02:51:12.903Z,101265.09
2022-12-27T02:54:09.264Z,101265.38
2022-12-27T02:57:11.227Z,101270.28
2022-12-27T03:00:27.229Z,101275.16
2022-12-27T03:03:47.811Z,101269.59
2022-12-27T03:06:49.363Z,101268.75
2022-12-27T03:10:01.937Z,101271.97
2022-12-27T03:13:15.206Z,101276.56
2022-12-27T03:16:13.282Z,101277.56
2022-12-27T03:19:10.046Z,101276.44
2022-12-27T03:22:16.369Z,101278.81
2022-12-27T03:25:23.162Z,101283.00
2022-12-27T03:28:33.154Z,101277.25
2022-12-27T03:31:43.854Z,101275.16
2022-12-27T03:34:39.809Z,101283.53
2022-12-27T03:37:48.603Z,101277.22
2022-12-27T03:41:02.218Z,101279.91
2022-12-27T03:43:51.657Z,101292.22
2022-12-27T03:46:43.386Z,101299.91
2022-12-27T03:49:35.775Z,101294.19
2022-12-27T03:52:26.978Z,101275.31
2022-12-27T03:55:15.982Z,101282.72
2022-12-27T03:58:04.733Z,101290.84
2022-12-27T04:00:53.215Z,101281.34
2022-12-27T04:03:41.667Z,101289.56
2022-12-27T04:06:31.432Z,101299.25
2022-12-27T04:09:37.443Z,101286.09
2022-12-27T04:12:43.583Z,101297.84
2022-12-27T04:15:50.137Z,101289.41
2022-12-27T04:18:56.183Z,101295.16
2022-12-27T04:22:03.362Z,101290.28
2022-12-27T04:25:09.355Z,101295.03
2022-12-27T04:28:15.382Z,101296.16
2022-12-27T04:31:21.669Z,101294.34
2022-12-27T04:34:27.796Z,101283.28
2022-12-27T04:37:18.828Z,101233.38
2022-12-27T04:40:26.220Z,101291.53
2022-12-27T04:43:32.267Z,101293.78
2022-12-27T04:46:40.960Z,101292.66
2022-12-27T04:49:47.273Z,101287.22
2022-12-27T04:52:54.607Z,101280.34
2022-12-27T04:55:43.006Z,101284.38
2022-12-27T04:58:31.647Z,101253.63
2022-12-27T05:01:37.689Z,101279.25
2022-12-27T05:04:26.334Z,101288.19
2022-12-27T05:07:32.989Z,101285.53
2022-12-27T05:10:40.500Z,101285.69
2022-12-27T05:13:46.451Z,101298.44
2022-12-27T05:16:37.317Z,101304.56
2022-12-27T05:19:25.735Z,101308.06
2022-12-27T05:22:31.798Z,101314.38
2022-12-27T05:25:35.565Z,101321.38
2022-12-27T05:28:25.454Z,101320.81
2022-12-27T05:31:13.920Z,101331.03
2022-12-27T05:34:02.480Z,101337.00
2022-12-27T05:36:50.896Z,101315.19
2022-12-27T05:39:39.371Z,101324.09
2022-12-27T05:42:27.773Z,101332.88
2022-12-27T05:45:17.805Z,101319.72
2022-12-27T05:48:06.965Z,101307.84
2022-12-27T05:50:55.599Z,101329.09
2022-12-27T05:53:44.275Z,101330.75
2022-12-27T05:56:35.359Z,101329.56
2022-12-27T05:59:23.797Z,101330.22
2022-12-27T06:02:13.729Z,101343.75
2022-12-27T06:05:02.235Z,101345.00
2022-12-27T06:07:50.787Z,101349.94
2022-12-27T06:10:39.309Z,101351.22
2022-12-27T06:13:27.728Z,101344.94
2022-12-27T06:16:16.181Z,101336.59
2022-12-27T06:19:05.982Z,101336.09
2022-12-27T06:21:54.425Z,101345.16
2022-12-27T06:24:42.925Z,101338.44
2022-12-27T06:27:31.331Z,101344.44
2022-12-27T06:30:19.890Z,101340.84
2022-12-27T06:33:08.419Z,101336.81
2022-12-27T06:35:58.298Z,101348.97
2022-12-27T06:38:47.535Z,101347.69
2022-12-27T06:41:36.019Z,101357.50
2022-12-27T06:44:24.496Z,101370.38
2022-12-27T06:47:12.951Z,101364.97
2022-12-27T06:50:01.431Z,101380.44
2022-12-27T06:52:51.309Z,101379.03
2022-12-27T06:55:39.746Z,101383.03
2022-12-27T06:58:28.201Z,101380.63
2022-12-27T07:01:18.366Z,101377.50
2022-12-27T07:04:06.900Z,101394.06
2022-12-27T07:06:55.334Z,101387.09
2022-12-27T07:09:45.154Z,101390.00
2022-12-27T07:12:36.771Z,101385.75
2022-12-27T07:15:26.052Z,101374.09
2022-12-27T07:18:14.560Z,101389.75
2022-12-27T07:21:05.221Z,101397.72
2022-12-27T07:23:54.151Z,101387.50
2022-12-27T07:26:43.944Z,101401.94
2022-12-27T07:29:32.366Z,101403.66
2022-12-27T07:32:20.850Z,101406.09
2022-12-27T07:35:09.597Z,101398.38
2022-12-27T07:37:58.045Z,101405.34
2022-12-27T07:40:46.566Z,101408.13
2022-12-27T07:43:36.909Z,101414.84
2022-12-27T07:46:26.552Z,101349.63
2022-12-27T07:49:17.930Z,101422.19
2022-12-27T07:52:06.673Z,101428.09
2022-12-27T07:54:55.165Z,101421.59
2022-12-27T07:57:43.613Z,101418.69
2022-12-27T08:00:33.492Z,101414.63
2022-12-27T08:03:21.942Z,101416.28
2022-12-27T08:06:20.844Z,101417.75
2022-12-27T08:09:12.246Z,101416.78
2022-12-27T08:12:00.706Z,101424.44
2022-12-27T08:14:49.191Z,101424.19
2022-12-27T08:17:39.078Z,101427.81
2022-12-27T08:20:27.599Z,101427.91
2022-12-27T08:23:16.252Z,101441.16
2022-12-27T08:26:04.996Z,101437.50
2022-12-27T08:28:53.443Z,101435.25
2022-12-27T08:31:41.921Z,101431.03
2022-12-27T08:34:31.743Z,101423.19
2022-12-27T08:37:20.209Z,101434.59
2022-12-27T08:40:09.614Z,101438.28
2022-12-27T08:42:58.055Z,101441.25
2022-12-27T08:45:46.627Z,101448.84
2022-12-27T08:48:37.406Z,101453.63
2022-12-27T08:51:35.947Z,101451.56
2022-12-27T08:54:29.000Z,101457.72
2022-12-27T08:57:17.424Z,101457.09
2022-12-27T09:00:08.392Z,101448.88
2022-12-27T09:02:56.911Z,101440.38
2022-12-27T09:05:46.175Z,101438.06
2022-12-27T09:08:36.015Z,101435.16
2022-12-27T09:11:25.656Z,101398.88
2022-12-27T09:14:14.149Z,101429.09
2022-12-27T09:17:02.683Z,101445.16
2022-12-27T09:19:51.202Z,101441.41
2022-12-27T09:22:39.917Z,101445.50
2022-12-27T09:25:29.835Z,101457.19
2022-12-27T09:28:18.290Z,101456.72
2022-12-27T09:31:07.283Z,101453.50
2022-12-27T09:33:55.891Z,101447.63
2022-12-27T09:36:44.318Z,101453.75
2022-12-27T09:39:32.829Z,101456.03
2022-12-27T09:43:09.508Z,101448.78
2022-12-27T09:45:52.664Z,101455.56
2022-12-27T09:48:41.701Z,101443.22
2022-12-27T09:51:33.696Z,101454.81
2022-12-27T09:54:24.158Z,101450.44
2022-12-27T09:57:20.488Z,101449.41
2022-12-27T10:00:17.304Z,101457.34
2022-12-27T10:03:06.679Z,101427.72
2022-12-27T10:06:00.379Z,101448.44
2022-12-27T10:08:53.024Z,101446.34
2022-12-27T10:11:48.183Z,101448.25
2022-12-27T10:14:50.004Z,101445.59
2022-12-27T10:17:53.146Z,101446.78
2022-12-27T10:20:54.586Z,101442.94
2022-12-27T10:23:45.767Z,101442.59
2022-12-27T10:26:34.238Z,101446.78
2022-12-27T10:29:24.822Z,101445.03
2022-12-27T10:32:14.845Z,101436.72
2022-12-27T10:35:09.606Z,101435.25
2022-12-27T10:38:00.111Z,101429.91
2022-12-27T10:40:55.045Z,101430.59
2022-12-27T10:43:44.566Z,101400.38
2022-12-27T10:46:34.008Z,101429.66
2022-12-27T10:49:26.698Z,101431.38
2022-12-27T10:52:19.684Z,101430.22
2022-12-27T10:55:32.488Z,101428.94
2022-12-27T10:58:24.322Z,101426.97
2022-12-27T11:01:17.500Z,101425.69
2022-12-27T11:04:21.178Z,101424.72
2022-12-27T11:07:14.803Z,101425.56
2022-12-27T11:10:14.245Z,101420.72
2022-12-27T11:13:03.778Z,101424.50
2022-12-27T11:15:59.049Z,101423.28
2022-12-27T11:18:50.069Z,101424.63
2022-12-27T11:21:39.140Z,101418.16
2022-12-27T11:24:28.240Z,101409.69
2022-12-27T11:27:24.399Z,101400.19
2022-12-27T11:30:23.575Z,101407.06
2022-12-27T11:33:24.585Z,101401.91
2022-12-27T11:36:15.196Z,101378.09
2022-12-27T11:39:04.075Z,101368.72
2022-12-27T11:41:54.111Z,101410.78
2022-12-27T11:44:47.729Z,101414.28
2022-12-27T11:47:41.484Z,101414.59
2022-12-27T11:50:44.280Z,101414.28
2022-12-27T11:54:08.301Z,101413.25
2022-12-27T11:57:01.830Z,101413.75
2022-12-27T12:00:00.218Z,101411.72
2022-12-27T12:03:03.768Z,101416.50
2022-12-27T12:06:02.320Z,101419.69
2022-12-27T12:09:27.770Z,101417.50
2022-12-27T12:12:33.203Z,101410.81
2022-12-27T12:15:38.225Z,101403.81
2022-12-27T12:18:49.137Z,101407.00
2022-12-27T12:21:41.616Z,101413.19
2022-12-27T12:24:47.636Z,101407.66
2022-12-27T12:27:43.901Z,101393.44
2022-12-27T12:30:49.483Z,101395.50
2022-12-27T12:34:00.750Z,101396.34
2022-12-27T12:37:20.764Z,101394.53
2022-12-27T12:40:26.568Z,101379.47
2022-12-27T12:43:25.281Z,101402.09
2022-12-27T12:46:22.774Z,101395.91
2022-12-27T12:49:28.733Z,101395.53
2022-12-27T12:52:33.021Z,101402.06
2022-12-27T12:55:38.503Z,101397.91
2022-12-27T12:58:43.088Z,101390.84
2022-12-27T13:01:50.466Z,101381.81
2022-12-27T13:04:59.827Z,101393.00
2022-12-27T13:07:57.396Z,101386.84
2022-12-27T13:11:14.431Z,101366.22
2022-12-27T13:14:14.115Z,101388.66
2022-12-27T13:17:08.031Z,101378.25
2022-12-27T13:20:08.008Z,101378.25
2022-12-27T13:23:07.701Z,101378.25
2022-12-27T13:26:03.046Z,101379.75
2022-12-27T13:29:08.237Z,101371.25
2022-12-27T13:32:05.783Z,101372.25
2022-12-27T13:35:02.997Z,101368.91
2022-12-27T13:37:58.907Z,101367.72
2022-12-27T13:41:00.729Z,101372.91
2022-12-27T13:44:16.387Z,101373.06
2022-12-27T13:47:43.365Z,101360.06
2022-12-27T13:51:06.750Z,101364.41
2022-12-27T13:54:44.841Z,101360.03
2022-12-27T13:57:52.837Z,101366.88
2022-12-27T14:00:46.904Z,101365.69
2022-12-27T14:03:56.253Z,101367.19
2022-12-27T14:06:53.919Z,101368.56
2022-12-27T14:10:00.415Z,101357.84
2022-12-27T14:13:00.207Z,101362.16
2022-12-27T14:16:12.010Z,101353.47
2022-12-27T14:19:20.863Z,101324.31
2022-12-27T14:22:30.455Z,101257.97
2022-12-27T14:26:00.553Z,101362.94
2022-12-27T14:29:16.822Z,101361.41
2022-12-27T14:32:25.414Z,101358.00
2022-12-27T14:35:57.799Z,101362.63
2022-12-27T14:38:58.947Z,101360.91
2022-12-27T14:42:20.155Z,101350.97
2022-12-27T14:45:41.237Z,101355.78
2022-12-27T14:49:23.535Z,101313.56
2022-12-27T14:52:42.455Z,101340.84
2022-12-27T14:55:41.808Z,101340.13
2022-12-27T14:58:44.323Z,101334.91
2022-12-27T15:01:44.712Z,101321.50
2022-12-27T15:04:59.643Z,101323.66
2022-12-27T15:08:15.746Z,101303.00
2022-12-27T15:11:20.366Z,101309.94
2022-12-27T15:14:19.640Z,101317.75
2022-12-27T15:17:16.956Z,101313.69
2022-12-27T15:20:22.164Z,101325.06
2022-12-27T15:23:19.842Z,101317.16
2022-12-27T15:26:18.359Z,101318.09
2022-12-27T15:29:20.085Z,101321.44
2022-12-27T15:32:21.326Z,101333.56
2022-12-27T15:35:24.721Z,101329.31
2022-12-27T15:38:15.794Z,101326.56
2022-12-27T15:41:24.812Z,101321.59
2022-12-27T15:44:31.164Z,101327.31
2022-12-27T15:47:48.886Z,101321.50
2022-12-27T15:50:46.546Z,101323.28
2022-12-27T15:53:58.933Z,101322.66
2022-12-27T15:57:00.529Z,101328.16
2022-12-27T15:59:51.711Z,101331.16
2022-12-27T16:02:51.634Z,101329.38
2022-12-27T16:05:44.189Z,101319.59
2022-12-27T16:08:38.758Z,101324.22
2022-12-27T16:12:02.040Z,101317.81
2022-12-27T16:14:51.050Z,101325.41
2022-12-27T16:17:46.057Z,101331.44
2022-12-27T16:20:34.688Z,101334.81
2022-12-27T16:23:24.251Z,101329.66
2022-12-27T16:26:19.631Z,101332.16
2022-12-27T16:29:15.706Z,101330.59
2022-12-27T16:32:17.447Z,101322.22
2022-12-27T16:35:13.987Z,101328.63
2022-12-27T16:38:04.454Z,101322.34
2022-12-27T16:40:56.796Z,101315.19
2022-12-27T16:43:55.552Z,101335.63
2022-12-27T16:47:01.328Z,101312.38
2022-12-27T16:50:01.138Z,101315.84
2022-12-27T16:52:55.977Z,101313.47
2022-12-27T16:56:06.763Z,101306.91
2022-12-27T16:58:55.470Z,101304.78
2022-12-27T17:02:00.352Z,101300.28
2022-12-27T17:04:54.189Z,101292.16
2022-12-27T17:07:50.931Z,101288.66
2022-12-27T17:11:00.729Z,101275.06
2022-12-27T17:13:50.919Z,101293.91
2022-12-27T17:16:42.828Z,101288.47
2022-12-27T17:19:36.064Z,101292.25
2022-12-27T17:22:30.455Z,101289.28
2022-12-27T17:25:28.964Z,101293.94
2022-12-27T17:28:22.152Z,101294.06
2022-12-27T17:31:15.376Z,101290.00
2022-12-27T17:34:12.242Z,101287.03
2022-12-27T17:37:08.975Z,101276.78
2022-12-27T17:40:10.200Z,101281.50
2022-12-27T17:43:24.288Z,101286.66
2022-12-27T17:46:22.685Z,101283.16
2022-12-27T17:49:11.910Z,101284.28
2022-12-27T17:52:19.884Z,101276.13
2022-12-27T17:55:34.438Z,101266.75
2022-12-27T17:58:22.941Z,101264.06
2022-12-27T18:01:11.580Z,101255.63
2022-12-27T18:04:00.243Z,101252.25
2022-12-27T18:06:48.757Z,101243.63
2022-12-27T18:09:40.851Z,101242.59
2022-12-27T18:12:31.547Z,101238.50
2022-12-27T18:15:22.428Z,101221.38
2022-12-27T18:18:13.665Z,101232.00
2022-12-27T18:21:05.057Z,101231.81
2022-12-27T18:23:54.140Z,101234.59
2022-12-27T18:26:44.023Z,101226.44
2022-12-27T18:29:32.904Z,101166.00
2022-12-27T18:32:21.759Z,101226.16
2022-12-27T18:35:17.429Z,101230.38
2022-12-27T18:38:09.182Z,101226.69
2022-12-27T18:41:03.305Z,101228.03
2022-12-27T18:43:57.875Z,101231.66
2022-12-27T18:46:50.307Z,101235.13
2022-12-27T18:49:38.940Z,101226.38
2022-12-27T18:52:32.341Z,101223.25
2022-12-27T18:55:23.728Z,101219.63
2022-12-27T18:58:20.559Z,101215.56
2022-12-27T19:01:38.334Z,101216.41
2022-12-27T19:04:28.805Z,101210.88
2022-12-27T19:07:17.276Z,101196.34
2022-12-27T19:10:06.769Z,101191.28
2022-12-27T19:12:56.149Z,101192.94
2022-12-27T19:15:45.203Z,101188.16
2022-12-27T19:18:38.175Z,101190.78
2022-12-27T19:21:31.850Z,101167.97
2022-12-27T19:24:34.015Z,101176.63
2022-12-27T19:27:24.777Z,101178.31
2022-12-27T19:30:31.826Z,101172.84
2022-12-27T19:33:25.382Z,101171.84
2022-12-27T19:36:15.317Z,101177.88
2022-12-27T19:39:04.737Z,101177.03
2022-12-27T19:41:53.736Z,101175.22
2022-12-27T19:44:49.620Z,101174.75
2022-12-27T19:47:39.730Z,101177.84
2022-12-27T19:50:28.320Z,101162.47
2022-12-27T19:53:22.263Z,101163.56
2022-12-27T19:56:11.834Z,101154.56
2022-12-27T19:59:00.366Z,101157.44
2022-12-27T20:01:49.070Z,101163.22
2022-12-27T20:04:37.720Z,101157.94
2022-12-27T20:07:26.591Z,101154.16
2022-12-27T20:10:16.582Z,101106.97
2022-12-27T20:13:05.097Z,101154.72
2022-12-27T20:15:55.301Z,101151.88
2022-12-27T20:18:44.348Z,101142.97
2022-12-27T20:21:33.566Z,101113.44
2022-12-27T20:24:23.092Z,101127.16
2022-12-27T20:27:13.022Z,101137.59
2022-12-27T20:30:01.555Z,101140.59
2022-12-27T20:32:50.167Z,101142.16
2022-12-27T20:35:38.804Z,101129.63
2022-12-27T20:38:27.425Z,101107.53
2022-12-27T20:41:17.683Z,101136.97
2022-12-27T20:44:07.852Z,101127.88
2022-12-27T20:46:56.344Z,101121.34
2022-12-27T20:49:45.063Z,101123.78
2022-12-27T20:52:34.290Z,101108.28
2022-12-27T20:55:22.820Z,101115.72
2022-12-27T20:58:11.372Z,101108.41
2022-12-27T21:01:07.037Z,101118.25
2022-12-27T21:03:56.718Z,101103.13
2022-12-27T21:06:45.236Z,101101.09
2022-12-27T21:09:34.379Z,101101.53
2022-12-27T21:12:22.872Z,101106.84
2022-12-27T21:15:12.352Z,101112.75
2022-12-27T21:18:02.213Z,101105.41
2022-12-27T21:20:50.662Z,101115.84
2022-12-27T21:23:39.568Z,101119.59
2022-12-27T21:26:30.230Z,101109.75
2022-12-27T21:29:19.357Z,101099.16
2022-12-27T21:32:08.326Z,101111.88
2022-12-27T21:34:58.252Z,101112.84
2022-12-27T21:37:46.750Z,101105.66
2022-12-27T21:40:35.276Z,101116.72
2022-12-27T21:43:23.821Z,101076.00
2022-12-27T21:46:14.851Z,101097.84
2022-12-27T21:49:04.788Z,101106.63
2022-12-27T21:51:55.744Z,101114.28
2022-12-27T21:54:44.237Z,101084.03
2022-12-27T21:57:32.738Z,101097.47
2022-12-27T22:00:21.173Z,101102.75
2022-12-27T22:03:09.798Z,101080.69
2022-12-27T22:05:58.527Z,101084.53
2022-12-27T22:08:51.229Z,101081.41
2022-12-27T22:11:40.491Z,100906.50
2022-12-27T22:14:33.284Z,100919.09
2022-12-27T22:17:25.156Z,101073.56
2022-12-27T22:20:13.862Z,101074.44
2022-12-27T22:23:02.330Z,101080.91
2022-12-27T22:25:52.135Z,101061.81
2022-12-27T22:28:41.021Z,101064.34
2022-12-27T22:31:31.152Z,101011.75
2022-12-27T22:34:19.701Z,101022.91
2022-12-27T22:37:08.233Z,101057.25
2022-12-27T22:39:56.751Z,101047.16
2022-12-27T22:42:46.556Z,101042.38
2022-12-27T22:45:35.015Z,101052.09
2022-12-27T22:48:23.445Z,101051.59
2022-12-27T22:51:15.338Z,101051.47
2022-12-27T22:54:05.393Z,101046.81
2022-12-27T22:56:53.884Z,101048.50
2022-12-27T22:59:44.254Z,101031.44
2022-12-27T23:02:32.805Z,101047.28
2022-12-27T23:05:21.358Z,101039.09
2022-12-27T23:08:09.831Z,101046.09
2022-12-27T23:11:02.968Z,101047.16
2022-12-27T23:13:55.875Z,100989.69
2022-12-27T23:16:46.926Z,101034.59
2022-12-27T23:19:35.570Z,101044.03
2022-12-27T23:22:24.150Z,101031.44
2022-12-27T23:25:12.657Z,101018.75
2022-12-27T23:28:01.109Z,101011.19
2022-12-27T23:30:50.334Z,101018.84
2022-12-27T23:33:40.889Z,100992.09
2022-12-27T23:36:29.393Z,101012.97
2022-12-27T23:39:17.882Z,101023.16
2022-12-27T23:42:06.469Z,101013.44
2022-12-27T23:44:54.946Z,101007.91
2022-12-27T23:47:43.404Z,101005.88
2022-12-27T23:50:33.173Z,100989.91
2022-12-27T23:53:21.609Z,100975.16
2022-12-27T23:56:15.229Z,100989.56
2022-12-27T23:59:04.219Z,100949.56
